Terminal Aerodrome Forecast
Issued by NWS

Home | Current Version | Previous Version | Text Only | Print | Product List | Glossary On
Versions: 1 2 3 4 5 6 7 8 9 10 11 12 13 14 15 16 17 18 19
000
FTUS46 KPDT 010500
TAFALW
TAF
KALW 010529Z 0106/0206 17007KT P6SM OVC070
     FM010700 15006KT 4SM -RA BR SCT015 BKN025 OVC040
     FM011300 18008KT 3SM RA BR BKN015 OVC025
     FM012000 22010KT 6SM -SHRA BR BKN025 OVC040
     FM020200 19011KT P6SM BKN060 OVC150=

USA.gov is the U.S. government's official web portal to all federal, state and local government web resources and services.